sensor_id;sensor_type;location;lat;lon;timestamp;P1;durP1;ratioP1;P2;durP2;ratioP2
84937;SDS011;75210;52.210;20.902;2024-01-30T00:00:51;46.42;;;20.15;;
84937;SDS011;75210;52.210;20.902;2024-01-30T00:01:52;45.33;;;19.77;;
84937;SDS011;75210;52.210;20.902;2024-01-30T00:02:52;45.00;;;19.38;;
84937;SDS011;75210;52.210;20.902;2024-01-30T00:03:53;42.45;;;19.20;;
84937;SDS011;75210;52.210;20.902;2024-01-30T00:04:55;48.40;;;19.50;;
84937;SDS011;75210;52.210;20.902;2024-01-30T00:05:56;46.78;;;19.42;;
84937;SDS011;75210;52.210;20.902;2024-01-30T00:06:59;43.53;;;19.20;;
84937;SDS011;75210;52.210;20.902;2024-01-30T00:08:00;48.03;;;19.20;;
84937;SDS011;75210;52.210;20.902;2024-01-30T00:09:02;47.45;;;18.73;;
84937;SDS011;75210;52.210;20.902;2024-01-30T00:10:03;41.20;;;19.38;;
84937;SDS011;75210;52.210;20.902;2024-01-30T00:11:04;44.55;;;19.52;;
84937;SDS011;75210;52.210;20.902;2024-01-30T00:12:04;47.08;;;18.73;;
84937;SDS011;75210;52.210;20.902;2024-01-30T00:13:05;43.42;;;18.38;;
84937;SDS011;75210;52.210;20.902;2024-01-30T00:14:06;42.13;;;19.83;;
84937;SDS011;75210;52.210;20.902;2024-01-30T00:15:09;44.05;;;17.67;;
84937;SDS011;75210;52.210;20.902;2024-01-30T00:16:19;49.17;;;19.95;;
84937;SDS011;75210;52.210;20.902;2024-01-30T00:17:24;48.67;;;19.77;;
84937;SDS011;75210;52.210;20.902;2024-01-30T00:18:25;44.83;;;19.60;;
84937;SDS011;75210;52.210;20.902;2024-01-30T00:19:25;46.90;;;19.48;;
84937;SDS011;75210;52.210;20.902;2024-01-30T00:20:25;43.28;;;19.25;;
84937;SDS011;75210;52.210;20.902;2024-01-30T00:21:26;39.97;;;19.13;;
84937;SDS011;75210;52.210;20.902;2024-01-30T00:22:26;44.45;;;19.08;;
84937;SDS011;75210;52.210;20.902;2024-01-30T00:23:27;47.80;;;19.13;;
84937;SDS011;75210;52.210;20.902;2024-01-30T00:24:29;42.03;;;18.10;;
84937;SDS011;75210;52.210;20.902;2024-01-30T00:25:29;45.95;;;18.90;;
84937;SDS011;75210;52.210;20.902;2024-01-30T00:26:29;43.88;;;19.63;;
84937;SDS011;75210;52.210;20.902;2024-01-30T00:27:30;44.33;;;19.48;;
84937;SDS011;75210;52.210;20.902;2024-01-30T00:28:30;45.05;;;18.65;;
84937;SDS011;75210;52.210;20.902;2024-01-30T00:29:31;44.50;;;19.35;;
84937;SDS011;75210;52.210;20.902;2024-01-30T00:30:31;43.63;;;18.83;;
84937;SDS011;75210;52.210;20.902;2024-01-30T00:31:34;45.00;;;20.80;;
84937;SDS011;75210;52.210;20.902;2024-01-30T00:32:35;43.40;;;18.48;;
84937;SDS011;75210;52.210;20.902;2024-01-30T00:33:35;50.80;;;19.92;;
84937;SDS011;75210;52.210;20.902;2024-01-30T00:34:36;46.08;;;20.42;;
84937;SDS011;75210;52.210;20.902;2024-01-30T00:35:36;45.35;;;18.83;;
84937;SDS011;75210;52.210;20.902;2024-01-30T00:36:37;47.72;;;19.08;;
84937;SDS011;75210;52.210;20.902;2024-01-30T00:37:37;46.72;;;19.65;;
84937;SDS011;75210;52.210;20.902;2024-01-30T00:38:38;43.35;;;18.73;;
84937;SDS011;75210;52.210;20.902;2024-01-30T00:39:40;41.35;;;18.48;;
84937;SDS011;75210;52.210;20.902;2024-01-30T00:40:40;45.00;;;18.80;;
84937;SDS011;75210;52.210;20.902;2024-01-30T00:41:41;41.75;;;18.42;;
84937;SDS011;75210;52.210;20.902;2024-01-30T00:42:41;46.08;;;19.02;;
84937;SDS011;75210;52.210;20.902;2024-01-30T00:43:42;47.80;;;19.17;;
84937;SDS011;75210;52.210;20.902;2024-01-30T00:44:43;45.92;;;19.75;;
84937;SDS011;75210;52.210;20.902;2024-01-30T00:45:43;44.17;;;18.75;;
84937;SDS011;75210;52.210;20.902;2024-01-30T00:46:44;43.65;;;18.90;;
84937;SDS011;75210;52.210;20.902;2024-01-30T00:47:44;38.80;;;18.05;;
84937;SDS011;75210;52.210;20.902;2024-01-30T00:48:44;44.55;;;19.48;;
84937;SDS011;75210;52.210;20.902;2024-01-30T00:49:45;42.10;;;18.00;;
84937;SDS011;75210;52.210;20.902;2024-01-30T00:50:45;46.08;;;20.10;;
84937;SDS011;75210;52.210;20.902;2024-01-30T00:51:46;48.33;;;20.33;;
84937;SDS011;75210;52.210;20.902;2024-01-30T00:52:46;47.05;;;19.75;;
84937;SDS011;75210;52.210;20.902;2024-01-30T00:53:47;44.28;;;19.02;;
84937;SDS011;75210;52.210;20.902;2024-01-30T00:54:49;44.53;;;19.00;;
84937;SDS011;75210;52.210;20.902;2024-01-30T00:55:49;42.17;;;18.45;;
84937;SDS011;75210;52.210;20.902;2024-01-30T00:56:49;44.65;;;17.90;;
84937;SDS011;75210;52.210;20.902;2024-01-30T00:57:50;43.63;;;18.30;;
84937;SDS011;75210;52.210;20.902;2024-01-30T00:58:50;42.50;;;17.73;;
84937;SDS011;75210;52.210;20.902;2024-01-30T00:59:51;45.15;;;19.38;;
84937;SDS011;75210;52.210;20.902;2024-01-30T01:00:51;45.92;;;20.17;;
84937;SDS011;75210;52.210;20.902;2024-01-30T01:01:51;45.95;;;18.15;;
84937;SDS011;75210;52.210;20.902;2024-01-30T01:02:52;40.47;;;18.40;;
84937;SDS011;75210;52.210;20.902;2024-01-30T01:03:52;42.80;;;18.33;;
84937;SDS011;75210;52.210;20.902;2024-01-30T01:04:53;42.72;;;18.65;;
84937;SDS011;75210;52.210;20.902;2024-01-30T01:05:53;40.88;;;17.35;;
84937;SDS011;75210;52.210;20.902;2024-01-30T01:06:53;44.83;;;19.70;;
84937;SDS011;75210;52.210;20.902;2024-01-30T01:07:54;40.95;;;17.33;;
84937;SDS011;75210;52.210;20.902;2024-01-30T01:08:54;39.42;;;16.50;;
84937;SDS011;75210;52.210;20.902;2024-01-30T01:09:56;40.78;;;16.83;;
84937;SDS011;75210;52.210;20.902;2024-01-30T01:10:57;38.67;;;17.45;;
84937;SDS011;75210;52.210;20.902;2024-01-30T01:11:57;40.05;;;17.30;;
84937;SDS011;75210;52.210;20.902;2024-01-30T01:12:57;34.53;;;15.43;;
84937;SDS011;75210;52.210;20.902;2024-01-30T01:13:58;42.63;;;18.45;;
84937;SDS011;75210;52.210;20.902;2024-01-30T01:15:00;40.95;;;18.30;;
84937;SDS011;75210;52.210;20.902;2024-01-30T01:16:00;41.67;;;17.33;;
84937;SDS011;75210;52.210;20.902;2024-01-30T01:17:00;40.58;;;17.60;;
84937;SDS011;75210;52.210;20.902;2024-01-30T01:18:01;38.05;;;16.85;;
84937;SDS011;75210;52.210;20.902;2024-01-30T01:19:01;37.50;;;16.30;;
84937;SDS011;75210;52.210;20.902;2024-01-30T01:20:02;38.75;;;17.77;;
84937;SDS011;75210;52.210;20.902;2024-01-30T01:21:02;37.63;;;16.75;;
84937;SDS011;75210;52.210;20.902;2024-01-30T01:22:03;38.70;;;17.92;;
84937;SDS011;75210;52.210;20.902;2024-01-30T01:23:03;43.20;;;18.83;;
84937;SDS011;75210;52.210;20.902;2024-01-30T01:24:04;42.00;;;18.38;;
84937;SDS011;75210;52.210;20.902;2024-01-30T01:25:07;45.75;;;18.85;;
84937;SDS011;75210;52.210;20.902;2024-01-30T01:26:07;43.30;;;19.52;;
84937;SDS011;75210;52.210;20.902;2024-01-30T01:27:08;42.50;;;19.00;;
84937;SDS011;75210;52.210;20.902;2024-01-30T01:28:08;40.20;;;18.08;;
84937;SDS011;75210;52.210;20.902;2024-01-30T01:29:08;43.38;;;18.65;;
84937;SDS011;75210;52.210;20.902;2024-01-30T01:30:09;41.00;;;18.15;;
84937;SDS011;75210;52.210;20.902;2024-01-30T01:31:10;42.95;;;18.98;;
84937;SDS011;75210;52.210;20.902;2024-01-30T01:32:11;44.67;;;19.13;;
84937;SDS011;75210;52.210;20.902;2024-01-30T01:33:11;42.75;;;19.23;;
84937;SDS011;75210;52.210;20.902;2024-01-30T01:34:12;50.15;;;18.77;;
84937;SDS011;75210;52.210;20.902;2024-01-30T01:35:13;42.55;;;18.83;;
84937;SDS011;75210;52.210;20.902;2024-01-30T01:36:13;43.80;;;18.65;;
84937;SDS011;75210;52.210;20.902;2024-01-30T01:37:14;44.92;;;19.23;;
84937;SDS011;75210;52.210;20.902;2024-01-30T01:38:14;40.00;;;17.75;;
84937;SDS011;75210;52.210;20.902;2024-01-30T01:39:14;44.63;;;18.00;;
84937;SDS011;75210;52.210;20.902;2024-01-30T01:40:17;47.25;;;18.77;;
84937;SDS011;75210;52.210;20.902;2024-01-30T01:41:18;42.50;;;18.42;;
84937;SDS011;75210;52.210;20.902;2024-01-30T01:42:18;40.70;;;18.73;;
84937;SDS011;75210;52.210;20.902;2024-01-30T01:43:19;42.67;;;18.92;;
84937;SDS011;75210;52.210;20.902;2024-01-30T01:44:19;39.33;;;18.50;;
84937;SDS011;75210;52.210;20.902;2024-01-30T01:45:20;46.08;;;19.35;;
84937;SDS011;75210;52.210;20.902;2024-01-30T01:46:21;42.17;;;18.50;;
84937;SDS011;75210;52.210;20.902;2024-01-30T01:47:22;42.90;;;19.75;;
84937;SDS011;75210;52.210;20.902;2024-01-30T01:48:22;45.13;;;20.35;;
84937;SDS011;75210;52.210;20.902;2024-01-30T01:49:23;41.38;;;18.30;;
84937;SDS011;75210;52.210;20.902;2024-01-30T01:50:26;43.17;;;19.48;;
84937;SDS011;75210;52.210;20.902;2024-01-30T01:51:27;43.88;;;18.05;;
84937;SDS011;75210;52.210;20.902;2024-01-30T01:52:29;49.53;;;20.30;;
84937;SDS011;75210;52.210;20.902;2024-01-30T01:53:30;45.92;;;19.42;;
84937;SDS011;75210;52.210;20.902;2024-01-30T01:54:31;43.55;;;18.92;;
84937;SDS011;75210;52.210;20.902;2024-01-30T01:55:34;39.75;;;17.95;;
84937;SDS011;75210;52.210;20.902;2024-01-30T01:56:35;43.88;;;18.35;;
84937;SDS011;75210;52.210;20.902;2024-01-30T01:57:36;41.13;;;18.60;;
84937;SDS011;75210;52.210;20.902;2024-01-30T01:58:37;47.22;;;19.23;;
84937;SDS011;75210;52.210;20.902;2024-01-30T01:59:38;43.17;;;18.63;;
84937;SDS011;75210;52.210;20.902;2024-01-30T02:00:38;41.28;;;18.13;;
84937;SDS011;75210;52.210;20.902;2024-01-30T02:01:39;42.58;;;18.52;;
84937;SDS011;75210;52.210;20.902;2024-01-30T02:02:40;41.83;;;18.40;;
84937;SDS011;75210;52.210;20.902;2024-01-30T02:03:43;40.42;;;19.67;;
84937;SDS011;75210;52.210;20.902;2024-01-30T02:04:45;44.50;;;17.48;;
84937;SDS011;75210;52.210;20.902;2024-01-30T02:05:46;44.08;;;18.58;;
84937;SDS011;75210;52.210;20.902;2024-01-30T02:06:46;39.47;;;18.25;;
84937;SDS011;75210;52.210;20.902;2024-01-30T02:07:47;40.13;;;18.17;;
84937;SDS011;75210;52.210;20.902;2024-01-30T02:08:47;47.05;;;19.67;;
84937;SDS011;75210;52.210;20.902;2024-01-30T02:09:48;42.40;;;18.00;;
84937;SDS011;75210;52.210;20.902;2024-01-30T02:10:50;42.55;;;18.33;;
84937;SDS011;75210;52.210;20.902;2024-01-30T02:11:50;41.63;;;17.73;;
84937;SDS011;75210;52.210;20.902;2024-01-30T02:12:51;43.08;;;18.02;;
84937;SDS011;75210;52.210;20.902;2024-01-30T02:13:52;40.20;;;17.52;;
84937;SDS011;75210;52.210;20.902;2024-01-30T02:14:52;42.63;;;19.38;;
84937;SDS011;75210;52.210;20.902;2024-01-30T02:15:53;43.20;;;18.85;;
84937;SDS011;75210;52.210;20.902;2024-01-30T02:16:53;40.92;;;18.65;;
84937;SDS011;75210;52.210;20.902;2024-01-30T02:17:53;45.58;;;19.02;;
84937;SDS011;75210;52.210;20.902;2024-01-30T02:18:54;42.35;;;17.60;;
84937;SDS011;75210;52.210;20.902;2024-01-30T02:19:54;42.35;;;18.08;;
84937;SDS011;75210;52.210;20.902;2024-01-30T02:20:56;41.88;;;20.02;;
84937;SDS011;75210;52.210;20.902;2024-01-30T02:22:01;45.75;;;18.85;;
84937;SDS011;75210;52.210;20.902;2024-01-30T02:23:02;42.33;;;18.85;;
84937;SDS011;75210;52.210;20.902;2024-01-30T02:24:04;38.60;;;17.67;;
84937;SDS011;75210;52.210;20.902;2024-01-30T02:25:05;42.03;;;17.92;;
84937;SDS011;75210;52.210;20.902;2024-01-30T02:26:06;40.38;;;19.40;;
84937;SDS011;75210;52.210;20.902;2024-01-30T02:27:07;45.13;;;18.67;;
84937;SDS011;75210;52.210;20.902;2024-01-30T02:28:07;40.53;;;18.08;;
84937;SDS011;75210;52.210;20.902;2024-01-30T02:29:07;46.30;;;18.83;;
84937;SDS011;75210;52.210;20.902;2024-01-30T02:30:08;42.17;;;18.13;;
84937;SDS011;75210;52.210;20.902;2024-01-30T02:31:09;39.70;;;17.50;;
84937;SDS011;75210;52.210;20.902;2024-01-30T02:32:10;40.95;;;18.40;;
84937;SDS011;75210;52.210;20.902;2024-01-30T02:33:10;44.85;;;18.42;;
84937;SDS011;75210;52.210;20.902;2024-01-30T02:34:10;44.15;;;18.40;;
84937;SDS011;75210;52.210;20.902;2024-01-30T02:35:11;39.92;;;17.48;;
84937;SDS011;75210;52.210;20.902;2024-01-30T02:36:11;40.83;;;18.08;;
84937;SDS011;75210;52.210;20.902;2024-01-30T02:37:13;43.72;;;18.48;;
84937;SDS011;75210;52.210;20.902;2024-01-30T02:38:15;42.35;;;18.42;;
84937;SDS011;75210;52.210;20.902;2024-01-30T02:39:15;44.65;;;19.33;;
84937;SDS011;75210;52.210;20.902;2024-01-30T02:40:15;42.08;;;18.70;;
84937;SDS011;75210;52.210;20.902;2024-01-30T02:41:16;40.33;;;18.15;;
84937;SDS011;75210;52.210;20.902;2024-01-30T02:42:16;37.15;;;17.38;;
84937;SDS011;75210;52.210;20.902;2024-01-30T02:43:17;44.08;;;18.70;;
84937;SDS011;75210;52.210;20.902;2024-01-30T02:44:17;41.28;;;18.80;;
84937;SDS011;75210;52.210;20.902;2024-01-30T02:45:18;41.50;;;18.23;;
84937;SDS011;75210;52.210;20.902;2024-01-30T02:46:18;41.08;;;17.92;;
84937;SDS011;75210;52.210;20.902;2024-01-30T02:47:19;44.50;;;18.10;;
84937;SDS011;75210;52.210;20.902;2024-01-30T02:48:19;46.10;;;19.33;;
84937;SDS011;75210;52.210;20.902;2024-01-30T02:49:19;43.15;;;18.45;;
84937;SDS011;75210;52.210;20.902;2024-01-30T02:50:20;40.42;;;17.25;;
84937;SDS011;75210;52.210;20.902;2024-01-30T02:51:21;43.83;;;17.88;;
84937;SDS011;75210;52.210;20.902;2024-01-30T02:52:23;42.78;;;17.13;;
84937;SDS011;75210;52.210;20.902;2024-01-30T02:53:23;39.92;;;17.05;;
84937;SDS011;75210;52.210;20.902;2024-01-30T02:54:24;44.40;;;17.48;;
84937;SDS011;75210;52.210;20.902;2024-01-30T02:55:24;45.45;;;17.58;;
84937;SDS011;75210;52.210;20.902;2024-01-30T02:56:24;40.13;;;18.85;;
84937;SDS011;75210;52.210;20.902;2024-01-30T02:57:25;39.72;;;17.17;;
84937;SDS011;75210;52.210;20.902;2024-01-30T02:58:25;39.53;;;17.70;;
84937;SDS011;75210;52.210;20.902;2024-01-30T02:59:26;40.70;;;18.02;;
84937;SDS011;75210;52.210;20.902;2024-01-30T03:00:26;41.03;;;17.88;;
84937;SDS011;75210;52.210;20.902;2024-01-30T03:01:27;40.45;;;17.50;;
84937;SDS011;75210;52.210;20.902;2024-01-30T03:02:27;45.33;;;17.73;;
84937;SDS011;75210;52.210;20.902;2024-01-30T03:03:27;38.90;;;17.30;;
84937;SDS011;75210;52.210;20.902;2024-01-30T03:04:28;42.25;;;17.42;;
84937;SDS011;75210;52.210;20.902;2024-01-30T03:05:28;40.00;;;17.42;;
84937;SDS011;75210;52.210;20.902;2024-01-30T03:06:29;37.63;;;18.20;;
84937;SDS011;75210;52.210;20.902;2024-01-30T03:07:31;38.60;;;17.60;;
84937;SDS011;75210;52.210;20.902;2024-01-30T03:08:31;41.42;;;17.85;;
84937;SDS011;75210;52.210;20.902;2024-01-30T03:09:31;40.67;;;17.38;;
84937;SDS011;75210;52.210;20.902;2024-01-30T03:10:32;42.20;;;17.52;;
84937;SDS011;75210;52.210;20.902;2024-01-30T03:11:32;38.72;;;16.23;;
84937;SDS011;75210;52.210;20.902;2024-01-30T03:12:33;39.25;;;17.20;;
84937;SDS011;75210;52.210;20.902;2024-01-30T03:13:33;39.38;;;17.73;;
84937;SDS011;75210;52.210;20.902;2024-01-30T03:14:34;40.35;;;17.60;;
84937;SDS011;75210;52.210;20.902;2024-01-30T03:15:34;38.22;;;16.50;;
84937;SDS011;75210;52.210;20.902;2024-01-30T03:16:34;43.42;;;17.95;;
84937;SDS011;75210;52.210;20.902;2024-01-30T03:17:35;39.80;;;18.30;;
84937;SDS011;75210;52.210;20.902;2024-01-30T03:18:35;39.33;;;17.70;;
84937;SDS011;75210;52.210;20.902;2024-01-30T03:19:36;42.72;;;18.02;;
84937;SDS011;75210;52.210;20.902;2024-01-30T03:20:36;44.47;;;18.40;;
84937;SDS011;75210;52.210;20.902;2024-01-30T03:21:36;39.72;;;16.77;;
84937;SDS011;75210;52.210;20.902;2024-01-30T03:22:38;39.83;;;18.27;;
84937;SDS011;75210;52.210;20.902;2024-01-30T03:23:39;40.78;;;17.83;;
84937;SDS011;75210;52.210;20.902;2024-01-30T03:24:39;37.80;;;18.23;;
84937;SDS011;75210;52.210;20.902;2024-01-30T03:25:40;36.15;;;16.25;;
84937;SDS011;75210;52.210;20.902;2024-01-30T03:26:40;37.78;;;16.98;;
84937;SDS011;75210;52.210;20.902;2024-01-30T03:27:41;39.25;;;17.75;;
84937;SDS011;75210;52.210;20.902;2024-01-30T03:28:41;43.28;;;17.98;;
84937;SDS011;75210;52.210;20.902;2024-01-30T03:29:41;40.47;;;16.83;;
84937;SDS011;75210;52.210;20.902;2024-01-30T03:30:42;37.97;;;17.38;;
84937;SDS011;75210;52.210;20.902;2024-01-30T03:31:42;36.40;;;16.65;;
84937;SDS011;75210;52.210;20.902;2024-01-30T03:32:43;44.05;;;17.52;;
84937;SDS011;75210;52.210;20.902;2024-01-30T03:33:43;40.28;;;17.33;;
84937;SDS011;75210;52.210;20.902;2024-01-30T03:34:43;40.60;;;18.77;;
84937;SDS011;75210;52.210;20.902;2024-01-30T03:35:44;35.80;;;17.13;;
84937;SDS011;75210;52.210;20.902;2024-01-30T03:36:44;38.28;;;16.85;;
84937;SDS011;75210;52.210;20.902;2024-01-30T03:37:46;39.50;;;17.33;;
84937;SDS011;75210;52.210;20.902;2024-01-30T03:38:47;43.88;;;17.20;;
84937;SDS011;75210;52.210;20.902;2024-01-30T03:39:47;42.72;;;18.30;;
84937;SDS011;75210;52.210;20.902;2024-01-30T03:40:47;39.08;;;16.88;;
84937;SDS011;75210;52.210;20.902;2024-01-30T03:41:48;39.85;;;17.02;;
84937;SDS011;75210;52.210;20.902;2024-01-30T03:42:48;44.15;;;18.88;;
84937;SDS011;75210;52.210;20.902;2024-01-30T03:43:49;44.33;;;17.83;;
84937;SDS011;75210;52.210;20.902;2024-01-30T03:44:50;46.42;;;19.00;;
84937;SDS011;75210;52.210;20.902;2024-01-30T03:45:50;39.47;;;17.95;;
84937;SDS011;75210;52.210;20.902;2024-01-30T03:46:51;41.47;;;17.77;;
84937;SDS011;75210;52.210;20.902;2024-01-30T03:47:51;40.25;;;17.05;;
84937;SDS011;75210;52.210;20.902;2024-01-30T03:48:52;44.53;;;18.25;;
84937;SDS011;75210;52.210;20.902;2024-01-30T03:49:52;41.95;;;17.08;;
84937;SDS011;75210;52.210;20.902;2024-01-30T03:50:53;45.22;;;18.13;;
84937;SDS011;75210;52.210;20.902;2024-01-30T03:51:53;41.00;;;17.63;;
84937;SDS011;75210;52.210;20.902;2024-01-30T03:52:55;41.05;;;17.10;;
84937;SDS011;75210;52.210;20.902;2024-01-30T03:53:55;41.85;;;17.65;;
84937;SDS011;75210;52.210;20.902;2024-01-30T03:54:56;39.08;;;17.50;;
84937;SDS011;75210;52.210;20.902;2024-01-30T03:55:56;38.83;;;17.23;;
84937;SDS011;75210;52.210;20.902;2024-01-30T03:56:57;40.10;;;16.20;;
84937;SDS011;75210;52.210;20.902;2024-01-30T03:57:57;39.50;;;17.58;;
84937;SDS011;75210;52.210;20.902;2024-01-30T03:58:58;38.40;;;17.10;;
84937;SDS011;75210;52.210;20.902;2024-01-30T03:59:58;41.85;;;18.10;;
84937;SDS011;75210;52.210;20.902;2024-01-30T04:00:58;38.35;;;17.75;;
84937;SDS011;75210;52.210;20.902;2024-01-30T04:01:59;39.10;;;16.75;;
84937;SDS011;75210;52.210;20.902;2024-01-30T04:02:59;38.08;;;16.50;;
84937;SDS011;75210;52.210;20.902;2024-01-30T04:04:00;37.92;;;16.70;;
84937;SDS011;75210;52.210;20.902;2024-01-30T04:05:00;42.17;;;16.48;;
84937;SDS011;75210;52.210;20.902;2024-01-30T04:06:01;36.75;;;16.17;;
84937;SDS011;75210;52.210;20.902;2024-01-30T04:07:01;35.35;;;16.75;;
84937;SDS011;75210;52.210;20.902;2024-01-30T04:08:04;39.08;;;16.05;;
84937;SDS011;75210;52.210;20.902;2024-01-30T04:09:04;40.42;;;17.35;;
84937;SDS011;75210;52.210;20.902;2024-01-30T04:10:05;39.72;;;17.10;;
84937;SDS011;75210;52.210;20.902;2024-01-30T04:11:06;39.50;;;17.05;;
84937;SDS011;75210;52.210;20.902;2024-01-30T04:12:07;38.47;;;16.60;;
84937;SDS011;75210;52.210;20.902;2024-01-30T04:13:08;39.08;;;17.25;;
84937;SDS011;75210;52.210;20.902;2024-01-30T04:14:08;42.85;;;17.50;;
84937;SDS011;75210;52.210;20.902;2024-01-30T04:15:09;37.55;;;16.92;;
84937;SDS011;75210;52.210;20.902;2024-01-30T04:16:18;40.03;;;17.13;;
84937;SDS011;75210;52.210;20.902;2024-01-30T04:17:19;39.60;;;16.75;;
84937;SDS011;75210;52.210;20.902;2024-01-30T04:18:20;35.10;;;16.02;;
84937;SDS011;75210;52.210;20.902;2024-01-30T04:19:20;39.65;;;16.95;;
84937;SDS011;75210;52.210;20.902;2024-01-30T04:20:20;36.85;;;16.92;;
84937;SDS011;75210;52.210;20.902;2024-01-30T04:21:21;38.95;;;17.48;;
84937;SDS011;75210;52.210;20.902;2024-01-30T04:22:22;34.38;;;15.80;;
84937;SDS011;75210;52.210;20.902;2024-01-30T04:23:29;40.75;;;16.40;;
84937;SDS011;75210;52.210;20.902;2024-01-30T04:24:30;37.47;;;16.42;;
84937;SDS011;75210;52.210;20.902;2024-01-30T04:25:30;40.95;;;17.10;;
84937;SDS011;75210;52.210;20.902;2024-01-30T04:26:31;46.35;;;19.00;;
84937;SDS011;75210;52.210;20.902;2024-01-30T04:27:31;39.00;;;16.10;;
84937;SDS011;75210;52.210;20.902;2024-01-30T04:28:32;44.03;;;17.38;;
84937;SDS011;75210;52.210;20.902;2024-01-30T04:29:32;40.25;;;17.17;;
84937;SDS011;75210;52.210;20.902;2024-01-30T04:30:32;40.35;;;17.08;;
84937;SDS011;75210;52.210;20.902;2024-01-30T04:31:33;40.92;;;17.90;;
84937;SDS011;75210;52.210;20.902;2024-01-30T04:32:36;41.38;;;16.95;;
84937;SDS011;75210;52.210;20.902;2024-01-30T04:33:36;35.83;;;16.63;;
84937;SDS011;75210;52.210;20.902;2024-01-30T04:34:37;36.35;;;16.75;;
84937;SDS011;75210;52.210;20.902;2024-01-30T04:35:37;37.80;;;16.15;;
84937;SDS011;75210;52.210;20.902;2024-01-30T04:36:38;38.47;;;16.35;;
84937;SDS011;75210;52.210;20.902;2024-01-30T04:37:38;38.92;;;16.70;;
84937;SDS011;75210;52.210;20.902;2024-01-30T04:38:40;42.95;;;18.00;;
84937;SDS011;75210;52.210;20.902;2024-01-30T04:39:41;38.13;;;17.63;;
84937;SDS011;75210;52.210;20.902;2024-01-30T04:40:41;38.33;;;16.67;;
84937;SDS011;75210;52.210;20.902;2024-01-30T04:41:41;38.33;;;16.15;;
84937;SDS011;75210;52.210;20.902;2024-01-30T04:42:42;39.65;;;16.88;;
84937;SDS011;75210;52.210;20.902;2024-01-30T04:43:42;38.15;;;16.80;;
84937;SDS011;75210;52.210;20.902;2024-01-30T04:44:43;39.08;;;16.48;;
84937;SDS011;75210;52.210;20.902;2024-01-30T04:45:43;39.28;;;17.25;;
84937;SDS011;75210;52.210;20.902;2024-01-30T04:46:43;36.22;;;15.18;;
84937;SDS011;75210;52.210;20.902;2024-01-30T04:47:44;39.28;;;17.52;;
84937;SDS011;75210;52.210;20.902;2024-01-30T04:48:44;38.45;;;15.80;;
84937;SDS011;75210;52.210;20.902;2024-01-30T04:49:45;36.70;;;15.18;;
84937;SDS011;75210;52.210;20.902;2024-01-30T04:50:45;40.88;;;15.80;;
84937;SDS011;75210;52.210;20.902;2024-01-30T04:51:45;40.75;;;17.15;;
84937;SDS011;75210;52.210;20.902;2024-01-30T04:52:46;34.63;;;16.08;;
84937;SDS011;75210;52.210;20.902;2024-01-30T04:53:48;41.13;;;16.92;;
84937;SDS011;75210;52.210;20.902;2024-01-30T04:54:48;41.15;;;16.60;;
84937;SDS011;75210;52.210;20.902;2024-01-30T04:55:49;38.95;;;16.60;;
84937;SDS011;75210;52.210;20.902;2024-01-30T04:56:49;36.25;;;16.50;;
84937;SDS011;75210;52.210;20.902;2024-01-30T04:57:49;40.17;;;17.92;;
84937;SDS011;75210;52.210;20.902;2024-01-30T04:58:50;39.67;;;17.75;;
84937;SDS011;75210;52.210;20.902;2024-01-30T04:59:50;36.90;;;16.92;;
84937;SDS011;75210;52.210;20.902;2024-01-30T05:00:51;37.42;;;15.80;;
84937;SDS011;75210;52.210;20.902;2024-01-30T05:01:51;40.47;;;15.80;;
84937;SDS011;75210;52.210;20.902;2024-01-30T05:02:52;39.63;;;17.25;;
84937;SDS011;75210;52.210;20.902;2024-01-30T05:03:52;38.67;;;17.20;;
84937;SDS011;75210;52.210;20.902;2024-01-30T05:04:52;41.42;;;16.90;;
84937;SDS011;75210;52.210;20.902;2024-01-30T05:05:53;41.97;;;18.42;;
84937;SDS011;75210;52.210;20.902;2024-01-30T05:06:54;39.13;;;18.05;;
84937;SDS011;75210;52.210;20.902;2024-01-30T05:07:55;40.13;;;17.63;;
84937;SDS011;75210;52.210;20.902;2024-01-30T05:08:57;39.15;;;16.38;;
84937;SDS011;75210;52.210;20.902;2024-01-30T05:09:57;37.78;;;17.33;;
84937;SDS011;75210;52.210;20.902;2024-01-30T05:10:59;37.47;;;16.85;;
84937;SDS011;75210;52.210;20.902;2024-01-30T05:12:00;39.35;;;17.70;;
84937;SDS011;75210;52.210;20.902;2024-01-30T05:13:01;40.25;;;16.95;;
84937;SDS011;75210;52.210;20.902;2024-01-30T05:14:01;41.65;;;17.40;;
84937;SDS011;75210;52.210;20.902;2024-01-30T05:15:01;38.08;;;16.98;;
84937;SDS011;75210;52.210;20.902;2024-01-30T05:16:02;40.83;;;18.00;;
84937;SDS011;75210;52.210;20.902;2024-01-30T05:17:03;39.92;;;16.45;;
84937;SDS011;75210;52.210;20.902;2024-01-30T05:18:04;38.85;;;17.50;;
84937;SDS011;75210;52.210;20.902;2024-01-30T05:19:04;37.58;;;17.35;;
84937;SDS011;75210;52.210;20.902;2024-01-30T05:20:05;41.63;;;18.30;;
84937;SDS011;75210;52.210;20.902;2024-01-30T05:21:06;37.00;;;17.17;;
84937;SDS011;75210;52.210;20.902;2024-01-30T05:22:07;39.47;;;17.38;;
84937;SDS011;75210;52.210;20.902;2024-01-30T05:23:07;35.28;;;16.48;;
84937;SDS011;75210;52.210;20.902;2024-01-30T05:24:10;43.03;;;18.15;;
84937;SDS011;75210;52.210;20.902;2024-01-30T05:25:10;38.83;;;16.85;;
84937;SDS011;75210;52.210;20.902;2024-01-30T05:26:11;39.97;;;18.23;;
84937;SDS011;75210;52.210;20.902;2024-01-30T05:27:11;40.28;;;17.65;;
84937;SDS011;75210;52.210;20.902;2024-01-30T05:28:12;38.65;;;17.52;;
84937;SDS011;75210;52.210;20.902;2024-01-30T05:29:13;39.90;;;18.35;;
84937;SDS011;75210;52.210;20.902;2024-01-30T05:30:14;36.92;;;15.65;;
84937;SDS011;75210;52.210;20.902;2024-01-30T05:31:15;41.97;;;17.10;;
84937;SDS011;75210;52.210;20.902;2024-01-30T05:32:16;39.22;;;16.65;;
84937;SDS011;75210;52.210;20.902;2024-01-30T05:33:16;36.22;;;16.88;;
84937;SDS011;75210;52.210;20.902;2024-01-30T05:34:16;41.35;;;17.30;;
84937;SDS011;75210;52.210;20.902;2024-01-30T05:35:17;37.75;;;17.50;;
84937;SDS011;75210;52.210;20.902;2024-01-30T05:36:17;35.97;;;15.68;;
84937;SDS011;75210;52.210;20.902;2024-01-30T05:37:18;37.42;;;16.15;;
84937;SDS011;75210;52.210;20.902;2024-01-30T05:38:18;38.97;;;15.85;;
84937;SDS011;75210;52.210;20.902;2024-01-30T05:39:20;39.95;;;16.55;;
84937;SDS011;75210;52.210;20.902;2024-01-30T05:40:21;34.13;;;15.63;;
84937;SDS011;75210;52.210;20.902;2024-01-30T05:41:21;41.35;;;17.52;;
84937;SDS011;75210;52.210;20.902;2024-01-30T05:42:22;36.70;;;17.00;;
84937;SDS011;75210;52.210;20.902;2024-01-30T05:43:22;37.10;;;16.45;;
84937;SDS011;75210;52.210;20.902;2024-01-30T05:44:22;40.90;;;16.75;;
84937;SDS011;75210;52.210;20.902;2024-01-30T05:45:23;38.63;;;16.98;;
84937;SDS011;75210;52.210;20.902;2024-01-30T05:46:23;41.17;;;17.70;;
84937;SDS011;75210;52.210;20.902;2024-01-30T05:47:24;37.55;;;16.73;;
84937;SDS011;75210;52.210;20.902;2024-01-30T05:48:24;38.42;;;16.58;;
84937;SDS011;75210;52.210;20.902;2024-01-30T05:49:24;41.28;;;17.45;;
84937;SDS011;75210;52.210;20.902;2024-01-30T05:50:29;42.75;;;18.40;;